Time;durP1;ratioP1;P1;durP2;ratioP2;P2;SDS_P1;SDS_P2;PMS_P1;PMS_P2;Temp;Humidity;BMP_temperature;BMP_pressure;BME280_temperature;BME280_humidity;BME280_pressure;Samples;Min_cycle;Max_cycle;Signal;HPM_P1;HPM_P2
2023/08/02 00:01:02;;;;;;;5.40;0.90;;;15.00;99.90;;;;;;5055659;28;20476;-74
2023/08/02 00:03:28;;;;;;;8.73;1.10;;;15.00;99.90;;;;;;5055316;28;20381;-74
2023/08/02 00:05:55;;;;;;;8.27;1.10;;;15.00;99.90;;;;;;5055786;28;20362;-74
2023/08/02 00:08:21;;;;;;;7.90;1.83;;;15.00;99.90;;;;;;5053899;28;20480;-74
2023/08/02 00:10:47;;;;;;;6.32;0.95;;;15.00;99.90;;;;;;5055191;28;20088;-74
2023/08/02 00:13:12;;;;;;;6.50;1.65;;;15.00;99.90;;;;;;5055462;28;20048;-74
2023/08/02 00:15:38;;;;;;;5.68;1.15;;;15.00;99.90;;;;;;5055561;28;20428;-74
2023/08/02 00:18:04;;;;;;;6.60;1.02;;;15.10;99.90;;;;;;5053727;28;20082;-74
2023/08/02 00:20:29;;;;;;;8.52;1.13;;;15.00;99.90;;;;;;5054978;28;20100;-74
2023/08/02 00:22:55;;;;;;;9.93;0.93;;;15.00;99.90;;;;;;5055010;28;20055;-74
2023/08/02 00:25:22;;;;;;;9.32;1.45;;;15.00;99.90;;;;;;5055533;28;20051;-74
2023/08/02 00:27:47;;;;;;;6.63;0.60;;;15.00;99.90;;;;;;5054708;28;20025;-74
2023/08/02 00:30:13;;;;;;;1.73;0.40;;;15.00;99.90;;;;;;5053671;28;20036;-74
2023/08/02 00:32:46;;;;;;;7.15;1.00;;;14.90;99.90;;;;;;5054707;28;20013;-74
2023/08/02 00:35:13;;;;;;;9.32;0.98;;;14.80;99.90;;;;;;5053673;28;20377;-74
2023/08/02 00:37:38;;;;;;;11.85;1.55;;;14.80;99.90;;;;;;5054974;28;20021;-74
2023/08/02 00:40:04;;;;;;;7.38;1.98;;;14.80;99.90;;;;;;5053381;28;20021;-74
2023/08/02 00:42:30;;;;;;;9.40;1.80;;;14.80;99.90;;;;;;5054534;28;20032;-75
2023/08/02 00:44:56;;;;;;;8.50;1.27;;;14.70;99.90;;;;;;5054699;28;20104;-74
2023/08/02 00:47:23;;;;;;;7.50;0.80;;;14.70;99.90;;;;;;5054533;28;20500;-74
2023/08/02 00:49:49;;;;;;;4.75;0.70;;;14.60;99.90;;;;;;5054894;28;20048;-74
2023/08/02 00:52:14;;;;;;;6.68;0.57;;;14.60;99.90;;;;;;5053325;28;20021;-74
2023/08/02 00:54:41;;;;;;;9.35;1.00;;;14.60;99.90;;;;;;5054226;28;20408;-74
2023/08/02 00:57:08;;;;;;;3.55;0.65;;;14.60;99.90;;;;;;5054371;28;20419;-75
2023/08/02 00:59:37;;;;;;;10.75;1.48;;;14.60;99.90;;;;;;5054217;28;20100;-74
2023/08/02 01:02:03;;;;;;;8.20;1.02;;;14.60;99.90;;;;;;5054571;28;20032;-74
2023/08/02 01:04:29;;;;;;;7.43;0.82;;;14.60;99.90;;;;;;5054099;28;20029;-74
2023/08/02 01:07:03;;;;;;;10.10;1.67;;;14.60;99.90;;;;;;5054029;28;20031;-74
2023/08/02 01:10:04;;;;;;;2.30;0.60;;;14.60;99.90;;;;;;5052665;28;20025;-73
2023/08/02 01:12:33;;;;;;;6.68;1.40;;;14.60;99.90;;;;;;5052585;28;20069;-74
2023/08/02 01:15:01;;;;;;;4.53;1.50;;;14.70;99.90;;;;;;5053866;28;20095;-74
2023/08/02 01:17:27;;;;;;;5.22;0.35;;;14.70;99.90;;;;;;5053694;28;20575;-74
2023/08/02 01:19:52;;;;;;;4.30;0.68;;;14.80;99.90;;;;;;5053794;28;20107;-74
2023/08/02 01:22:18;;;;;;;4.15;0.60;;;14.80;99.90;;;;;;5053051;28;20476;-75
2023/08/02 01:24:43;;;;;;;5.75;0.52;;;14.80;99.90;;;;;;5053720;28;20087;-74
2023/08/02 01:27:17;;;;;;;5.40;0.85;;;14.90;99.90;;;;;;5053712;28;20025;-74
2023/08/02 01:29:47;;;;;;;7.65;2.22;;;14.90;99.90;;;;;;5054249;28;20025;-74
2023/08/02 01:32:15;;;;;;;5.82;0.88;;;14.90;99.90;;;;;;5053593;28;20021;-74
2023/08/02 01:34:41;;;;;;;6.88;0.60;;;14.90;99.90;;;;;;5053676;28;20025;-74
2023/08/02 01:37:06;;;;;;;5.03;2.15;;;14.90;99.90;;;;;;5053797;28;20377;-74
2023/08/02 01:39:32;;;;;;;11.35;1.50;;;14.90;99.90;;;;;;5053496;28;20056;-74
2023/08/02 01:41:58;;;;;;;7.32;1.15;;;14.90;99.90;;;;;;5052829;28;20021;-74
2023/08/02 01:44:23;;;;;;;4.85;1.00;;;14.90;99.90;;;;;;5052019;28;20369;-74
2023/08/02 01:46:49;;;;;;;4.80;0.90;;;14.80;99.90;;;;;;5052265;28;20435;-74
2023/08/02 01:49:14;;;;;;;9.27;1.42;;;14.80;99.90;;;;;;5053204;28;20055;-74
2023/08/02 01:51:40;;;;;;;8.77;1.13;;;14.80;99.90;;;;;;5053195;28;20021;-74
2023/08/02 01:54:05;;;;;;;7.05;1.88;;;14.90;99.90;;;;;;5053166;28;20063;-75
2023/08/02 01:56:31;;;;;;;11.05;1.65;;;14.70;99.90;;;;;;5052033;28;20013;-74
2023/08/02 01:58:57;;;;;;;12.05;2.28;;;14.70;99.90;;;;;;5053105;28;20025;-74
2023/08/02 02:01:22;;;;;;;9.05;0.93;;;14.80;99.90;;;;;;5053253;28;20428;-74
2023/08/02 02:03:48;;;;;;;7.72;1.10;;;14.80;99.90;;;;;;5052865;28;20033;-74
2023/08/02 02:06:13;;;;;;;3.58;1.23;;;14.80;99.90;;;;;;5053154;28;20032;-74
2023/08/02 02:08:39;;;;;;;6.80;1.10;;;14.90;99.90;;;;;;5052919;28;20033;-74
2023/08/02 02:11:04;;;;;;;4.95;1.55;;;14.90;99.90;;;;;;5052983;28;20025;-74
2023/08/02 02:13:31;;;;;;;5.07;2.03;;;15.70;99.90;;;;;;5051533;28;20024;-74
2023/08/02 02:15:59;;;;;;;5.10;1.30;;;14.90;99.90;;;;;;5052959;28;20021;-74
2023/08/02 02:18:25;;;;;;;7.00;1.52;;;15.00;99.90;;;;;;5053624;28;20104;-74
2023/08/02 02:20:50;;;;;;;7.43;0.95;;;15.00;99.90;;;;;;5052965;28;20068;-74
2023/08/02 02:23:16;;;;;;;4.25;0.70;;;14.90;99.90;;;;;;5053056;28;20029;-74
2023/08/02 02:25:41;;;;;;;7.93;1.85;;;14.90;99.90;;;;;;5052831;28;20113;-74
2023/08/02 02:28:07;;;;;;;6.88;1.58;;;14.90;99.90;;;;;;5053435;28;20116;-74
2023/08/02 02:30:33;;;;;;;6.07;1.00;;;14.90;99.90;;;;;;5052822;28;20049;-74
2023/08/02 02:32:58;;;;;;;2.83;1.30;;;14.90;99.90;;;;;;5051600;28;20025;-74
2023/08/02 02:35:26;;;;;;;7.18;1.48;;;14.90;99.90;;;;;;5052784;28;20052;-74
2023/08/02 02:37:52;;;;;;;5.70;1.08;;;14.90;99.90;;;;;;5051618;28;20029;-74
2023/08/02 02:40:17;;;;;;;7.93;2.00;;;14.90;99.90;;;;;;5053018;28;20104;-74
2023/08/02 02:42:43;;;;;;;7.72;1.60;;;14.90;99.90;;;;;;5053472;28;20049;-74
2023/08/02 02:45:09;;;;;;;6.13;0.90;;;14.90;99.90;;;;;;5052783;28;20017;-74
2023/08/02 02:47:35;;;;;;;2.88;0.68;;;15.00;99.90;;;;;;5052772;28;20395;-74
2023/08/02 02:50:01;;;;;;;9.15;1.90;;;14.90;99.90;;;;;;5052703;28;20025;-74
2023/08/02 02:52:26;;;;;;;6.07;1.35;;;14.90;99.90;;;;;;5052653;28;20383;-74
2023/08/02 02:54:52;;;;;;;6.22;1.08;;;15.00;99.90;;;;;;5052685;28;20025;-74
2023/08/02 02:57:18;;;;;;;6.40;1.33;;;14.90;99.90;;;;;;5053567;28;20419;-74
2023/08/02 02:59:43;;;;;;;8.10;1.55;;;14.90;99.90;;;;;;5056362;28;20067;-73
2023/08/02 03:02:09;;;;;;;5.75;0.73;;;14.90;99.90;;;;;;5056297;28;20036;-74
2023/08/02 03:04:35;;;;;;;5.43;1.02;;;14.90;99.90;;;;;;5056486;28;20388;-74
2023/08/02 03:07:01;;;;;;;5.53;1.15;;;15.00;99.90;;;;;;5056271;28;20108;-74
2023/08/02 03:09:26;;;;;;;3.78;1.05;;;14.90;99.90;;;;;;5056244;28;20496;-74
2023/08/02 03:11:52;;;;;;;6.32;0.70;;;14.90;99.90;;;;;;5056171;28;20503;-74
2023/08/02 03:14:17;;;;;;;6.93;1.95;;;14.90;99.90;;;;;;5056030;28;20022;-74
2023/08/02 03:16:43;;;;;;;6.22;1.10;;;14.90;99.90;;;;;;5054852;28;20021;-74
2023/08/02 03:19:10;;;;;;;2.08;0.80;;;14.80;99.90;;;;;;5054847;28;20036;-74
2023/08/02 03:21:35;;;;;;;3.70;0.73;;;14.80;99.90;;;;;;5056145;28;20055;-74
2023/08/02 03:24:01;;;;;;;5.97;0.80;;;14.80;99.90;;;;;;5056054;28;20236;-74
2023/08/02 03:26:27;;;;;;;5.18;0.80;;;14.70;99.90;;;;;;5056173;28;20025;-74
2023/08/02 03:28:52;;;;;;;4.03;1.33;;;14.70;99.90;;;;;;5055964;28;20033;-74
2023/08/02 03:31:18;;;;;;;7.60;1.75;;;14.70;99.90;;;;;;5055792;28;20028;-74
2023/08/02 03:33:44;;;;;;;6.35;0.95;;;14.70;99.90;;;;;;5055771;28;20029;-74
2023/08/02 03:36:09;;;;;;;6.90;1.23;;;14.70;99.90;;;;;;5055801;28;20532;-74
2023/08/02 03:38:35;;;;;;;5.10;1.83;;;14.60;99.90;;;;;;5055713;28;20443;-74
2023/08/02 03:41:00;;;;;;;10.15;1.08;;;14.70;99.90;;;;;;5055798;28;20075;-74
2023/08/02 03:43:26;;;;;;;4.80;1.20;;;14.70;99.90;;;;;;5056136;28;20139;-74
2023/08/02 03:45:51;;;;;;;10.13;1.63;;;14.70;99.90;;;;;;5055587;28;20047;-74
2023/08/02 03:48:17;;;;;;;6.85;1.77;;;14.70;99.90;;;;;;5055687;28;20025;-74
2023/08/02 03:50:43;;;;;;;6.90;1.70;;;14.70;99.90;;;;;;5054240;28;20043;-74
2023/08/02 03:53:09;;;;;;;5.90;0.93;;;14.70;99.90;;;;;;5055386;28;20492;-74
2023/08/02 03:55:35;;;;;;;4.18;0.75;;;14.70;99.90;;;;;;5055261;28;20024;-74
2023/08/02 03:58:00;;;;;;;7.05;1.73;;;14.80;99.90;;;;;;5055278;28;20103;-74
2023/08/02 04:00:26;;;;;;;9.48;1.38;;;14.80;99.90;;;;;;5055875;28;20521;-74
2023/08/02 04:02:51;;;;;;;3.58;1.25;;;14.90;99.90;;;;;;5055923;28;20472;-74
2023/08/02 04:05:17;;;;;;;5.97;0.75;;;14.90;99.90;;;;;;5053888;28;20048;-74
2023/08/02 04:07:43;;;;;;;8.00;1.17;;;14.90;99.90;;;;;;5053597;28;20075;-74
2023/08/02 04:10:10;;;;;;;7.10;1.13;;;14.90;99.90;;;;;;5055066;28;20396;-74
2023/08/02 04:12:35;;;;;;;7.75;0.50;;;15.00;99.90;;;;;;5055062;28;20101;-74
2023/08/02 04:15:02;;;;;;;8.85;1.77;;;15.00;99.90;;;;;;5054919;28;20048;-74
2023/08/02 04:17:28;;;;;;;4.90;0.63;;;15.00;99.90;;;;;;5054891;28;20025;-74
2023/08/02 04:19:53;;;;;;;4.60;0.90;;;15.10;99.90;;;;;;5054917;28;20100;-74
2023/08/02 04:22:19;;;;;;;3.25;0.93;;;16.10;99.90;;;;;;5054884;28;20078;-74
2023/08/02 04:24:44;;;;;;;4.45;0.98;;;15.10;99.90;;;;;;5054920;28;20021;-74
2023/08/02 04:27:10;;;;;;;5.05;1.00;;;15.20;99.90;;;;;;5055359;28;20036;-74
2023/08/02 04:29:35;;;;;;;7.38;0.65;;;15.20;99.90;;;;;;5053356;28;20116;-74
2023/08/02 04:32:01;;;;;;;9.07;0.70;;;15.20;99.90;;;;;;5053512;28;20154;-74
2023/08/02 04:34:26;;;;;;;5.82;0.77;;;15.20;99.90;;;;;;5054643;28;20067;-74
2023/08/02 04:36:52;;;;;;;9.25;0.95;;;15.30;99.90;;;;;;5053494;28;20025;-74
2023/08/02 04:39:18;;;;;;;8.45;1.17;;;15.30;99.90;;;;;;5053341;28;20021;-74
2023/08/02 04:41:43;;;;;;;4.90;0.82;;;15.30;99.90;;;;;;5055197;28;20021;-74
2023/08/02 04:44:09;;;;;;;5.90;0.70;;;15.30;99.90;;;;;;5054538;28;20036;-74
2023/08/02 04:46:34;;;;;;;3.72;0.60;;;15.30;99.90;;;;;;5053437;28;20048;-74
2023/08/02 04:49:00;;;;;;;3.05;0.20;;;15.40;99.90;;;;;;5053057;28;20033;-74
2023/08/02 04:51:26;;;;;;;9.55;1.38;;;15.50;99.90;;;;;;5054855;28;20017;-74
2023/08/02 04:53:51;;;;;;;6.45;0.75;;;15.40;99.90;;;;;;5054209;28;20528;-74
2023/08/02 04:56:17;;;;;;;6.13;1.55;;;15.40;99.90;;;;;;5054318;28;20071;-74
2023/08/02 04:58:43;;;;;;;4.78;0.45;;;15.40;99.90;;;;;;5054216;28;20017;-74
2023/08/02 05:01:08;;;;;;;6.22;1.30;;;15.40;99.90;;;;;;5054105;28;20082;-74
2023/08/02 05:03:35;;;;;;;4.47;0.77;;;15.50;99.90;;;;;;5052588;28;20033;-74
2023/08/02 05:06:02;;;;;;;3.85;0.50;;;15.50;99.90;;;;;;5052673;28;20025;-74
2023/08/02 05:08:30;;;;;;;3.42;0.55;;;15.50;99.90;;;;;;5053934;28;20017;-74
2023/08/02 05:10:56;;;;;;;5.93;0.98;;;15.50;99.90;;;;;;5053851;28;20053;-74
2023/08/02 05:13:25;;;;;;;2.92;0.77;;;15.60;99.90;;;;;;5054523;28;20460;-74
2023/08/02 05:15:51;;;;;;;2.47;0.73;;;15.60;99.90;;;;;;5053823;28;20029;-74
2023/08/02 05:18:17;;;;;;;4.30;0.30;;;15.70;99.90;;;;;;5052533;28;20115;-73
2023/08/02 05:20:42;;;;;;;4.72;1.17;;;15.70;99.90;;;;;;5053116;28;20440;-73
2023/08/02 05:23:08;;;;;;;5.10;1.30;;;15.70;99.90;;;;;;5053631;28;20033;-74
2023/08/02 05:25:34;;;;;;;2.92;0.38;;;15.70;99.90;;;;;;5053604;28;20056;-74
2023/08/02 05:28:01;;;;;;;1.08;0.57;;;15.70;99.90;;;;;;5053417;28;20021;-74
2023/08/02 05:30:28;;;;;;;4.22;0.60;;;15.80;99.90;;;;;;5052433;28;20017;-74
2023/08/02 05:32:54;;;;;;;2.28;0.38;;;15.80;99.90;;;;;;5053597;28;20021;-74
2023/08/02 05:35:20;;;;;;;4.25;1.25;;;15.80;99.90;;;;;;5052333;28;20021;-74
2023/08/02 05:37:46;;;;;;;4.95;0.57;;;15.80;99.90;;;;;;5053524;28;20385;-74
2023/08/02 05:40:11;;;;;;;1.83;0.30;;;15.80;99.90;;;;;;5052183;28;20032;-74
2023/08/02 05:42:37;;;;;;;5.57;1.48;;;15.80;99.90;;;;;;5053988;28;20029;-74
2023/08/02 05:45:03;;;;;;;3.25;0.50;;;15.80;99.90;;;;;;5053463;28;20373;-74
2023/08/02 05:47:29;;;;;;;3.90;0.65;;;15.80;99.90;;;;;;5053334;28;20024;-74
2023/08/02 05:49:55;;;;;;;5.35;0.82;;;15.80;99.90;;;;;;5053811;28;20028;-74
2023/08/02 05:52:20;;;;;;;4.53;0.75;;;15.80;99.90;;;;;;5053415;28;20025;-74
2023/08/02 05:54:46;;;;;;;5.30;0.65;;;15.80;99.90;;;;;;5053529;28;20457;-74
2023/08/02 05:57:11;;;;;;;3.33;1.33;;;15.70;99.90;;;;;;5053212;28;20033;-74
2023/08/02 05:59:38;;;;;;;3.58;0.95;;;15.70;99.90;;;;;;5053380;28;20029;-74
2023/08/02 06:02:04;;;;;;;3.33;0.88;;;15.70;99.90;;;;;;5052933;28;20036;-74
2023/08/02 06:04:30;;;;;;;7.85;1.23;;;15.70;99.90;;;;;;5053645;28;20509;-74
2023/08/02 06:06:56;;;;;;;6.82;0.88;;;15.70;99.90;;;;;;5053158;28;20021;-74
2023/08/02 06:09:21;;;;;;;4.68;1.02;;;15.70;99.90;;;;;;5053007;28;20463;-74
2023/08/02 06:11:47;;;;;;;3.80;0.90;;;15.60;99.90;;;;;;5053548;28;20025;-74
2023/08/02 06:14:13;;;;;;;2.95;1.00;;;15.60;99.90;;;;;;5053156;28;20020;-74
2023/08/02 06:16:39;;;;;;;3.85;0.75;;;15.80;99.90;;;;;;5053033;28;20040;-74
2023/08/02 06:19:04;;;;;;;5.03;0.95;;;15.60;99.90;;;;;;5052973;28;20025;-74
2023/08/02 06:21:30;;;;;;;5.63;0.93;;;15.70;99.90;;;;;;5053508;28;20025;-74
2023/08/02 06:23:55;;;;;;;5.20;0.93;;;15.70;99.90;;;;;;5051817;28;20056;-74
2023/08/02 06:26:21;;;;;;;3.58;0.90;;;15.60;99.90;;;;;;5052847;28;20017;-74
2023/08/02 06:28:48;;;;;;;3.90;0.85;;;15.60;99.90;;;;;;5052974;28;20480;-74
2023/08/02 06:31:13;;;;;;;4.45;1.10;;;15.80;99.90;;;;;;5053756;28;20029;-74
2023/08/02 06:33:39;;;;;;;3.53;1.00;;;15.70;99.90;;;;;;5057312;28;20517;-74
2023/08/02 06:36:04;;;;;;;6.78;0.90;;;15.70;99.90;;;;;;5056893;28;20025;-74
2023/08/02 06:38:32;;;;;;;3.15;0.90;;;15.90;99.90;;;;;;5056853;28;20017;-74
2023/08/02 06:40:57;;;;;;;2.53;0.82;;;15.70;99.90;;;;;;5056790;28;20095;-74
2023/08/02 06:43:23;;;;;;;1.58;0.43;;;15.70;99.90;;;;;;5057045;28;20475;-74
2023/08/02 06:45:49;;;;;;;1.67;0.63;;;15.70;99.90;;;;;;5056541;28;20021;-74
2023/08/02 06:48:19;;;;;;;2.33;0.45;;;15.70;99.90;;;;;;5056495;28;20017;-74
2023/08/02 06:50:45;;;;;;;2.97;0.68;;;15.70;99.90;;;;;;5056147;28;20427;-74
2023/08/02 06:53:10;;;;;;;2.60;1.05;;;15.80;99.90;;;;;;5056550;28;20021;-73
2023/08/02 06:55:36;;;;;;;2.75;0.63;;;15.80;99.90;;;;;;5056380;28;20112;-74
2023/08/02 06:58:01;;;;;;;1.17;0.20;;;15.80;99.90;;;;;;5056396;28;20099;-74
2023/08/02 07:00:29;;;;;;;1.05;0.57;;;15.80;99.90;;;;;;5056990;28;20025;-74
2023/08/02 07:02:58;;;;;;;1.27;0.30;;;15.90;99.90;;;;;;5056364;28;20021;-74
2023/08/02 07:05:28;;;;;;;1.58;0.40;;;15.90;99.90;;;;;;5056290;28;20024;-74
2023/08/02 07:07:53;;;;;;;0.75;0.50;;;16.00;99.90;;;;;;5055018;28;20029;-74
2023/08/02 07:10:20;;;;;;;0.52;0.35;;;16.00;99.90;;;;;;5056275;28;20507;-74
2023/08/02 07:12:45;;;;;;;2.03;0.17;;;16.00;99.90;;;;;;5056256;28;20032;-74
2023/08/02 07:15:11;;;;;;;3.65;0.52;;;16.10;99.90;;;;;;5056068;28;20025;-74
2023/08/02 07:17:36;;;;;;;0.77;0.20;;;16.20;99.90;;;;;;5056736;28;20017;-74
2023/08/02 07:20:02;;;;;;;1.00;0.20;;;16.30;99.90;;;;;;5054914;28;20025;-74
2023/08/02 07:22:28;;;;;;;2.20;0.20;;;16.30;99.90;;;;;;5054856;28;20025;-74
2023/08/02 07:24:53;;;;;;;1.38;0.20;;;16.30;99.90;;;;;;5055972;28;20039;-74
2023/08/02 07:27:19;;;;;;;0.60;0.22;;;16.40;99.90;;;;;;5056000;28;20055;-74
2023/08/02 07:29:49;;;;;;;0.73;0.10;;;16.30;99.90;;;;;;5056083;28;20047;-74
2023/08/02 07:32:14;;;;;;;1.92;0.00;;;16.30;99.90;;;;;;5055794;28;20021;-74
2023/08/02 07:34:40;;;;;;;1.67;0.00;;;16.30;99.90;;;;;;5054525;28;20021;-74
2023/08/02 07:37:06;;;;;;;3.33;0.10;;;16.30;99.90;;;;;;5056441;28;20045;-74
2023/08/02 07:39:31;;;;;;;2.20;0.10;;;16.30;99.90;;;;;;5056290;28;20025;-74
2023/08/02 07:41:57;;;;;;;1.45;0.10;;;16.30;99.90;;;;;;5054532;28;20528;-74
2023/08/02 07:44:22;;;;;;;0.30;0.00;;;16.30;99.90;;;;;;5053539;28;20064;-74
2023/08/02 07:46:48;;;;;;;0.20;0.00;;;16.30;99.90;;;;;;5056294;28;20063;-74
2023/08/02 07:49:13;;;;;;;0.10;0.00;;;16.80;99.90;;;;;;5055622;28;20025;-74
2023/08/02 07:51:39;;;;;;;0.43;0.00;;;16.30;99.90;;;;;;5054317;28;20067;-74
2023/08/02 07:54:05;;;;;;;2.65;0.10;;;16.40;99.90;;;;;;5055402;28;20017;-74
2023/08/02 07:56:30;;;;;;;0.77;0.22;;;16.40;99.90;;;;;;5054243;28;20021;-74
2023/08/02 07:58:56;;;;;;;0.30;0.00;;;16.50;99.90;;;;;;5055529;28;20496;-74
2023/08/02 08:01:21;;;;;;;0.10;0.00;;;16.50;99.90;;;;;;5055348;28;20478;-74
2023/08/02 08:03:47;;;;;;;0.10;0.00;;;16.60;99.90;;;;;;5055171;28;20068;-74
2023/08/02 08:06:15;;;;;;;0.88;0.00;;;16.60;99.90;;;;;;5055157;28;20051;-74
2023/08/02 08:08:41;;;;;;;1.80;0.22;;;16.60;99.90;;;;;;5053825;28;20550;-74
2023/08/02 08:11:07;;;;;;;0.00;0.00;;;16.70;99.90;;;;;;5055164;28;20439;-73
2023/08/02 08:13:33;;;;;;;0.00;0.00;;;16.60;99.90;;;;;;5055172;28;20104;-73
2023/08/02 08:16:00;;;;;;;0.10;0.00;;;17.00;99.90;;;;;;5054972;28;20427;-74
2023/08/02 08:18:27;;;;;;;0.10;0.00;;;16.70;99.90;;;;;;5053675;28;20017;-74
2023/08/02 08:20:52;;;;;;;0.00;0.00;;;16.70;99.90;;;;;;5053982;28;20028;-74
2023/08/02 08:23:17;;;;;;;0.00;0.00;;;16.70;99.90;;;;;;5053658;28;20025;-74
2023/08/02 08:25:43;;;;;;;0.00;0.00;;;16.70;99.90;;;;;;5053524;28;20021;-74
2023/08/02 08:28:08;;;;;;;0.00;0.00;;;16.70;99.90;;;;;;5054791;28;20392;-74
2023/08/02 08:30:34;;;;;;;0.10;0.00;;;17.00;99.90;;;;;;5054963;28;20511;-74
2023/08/02 08:33:00;;;;;;;0.10;0.00;;;16.70;99.90;;;;;;5053554;28;20017;-74
2023/08/02 08:35:25;;;;;;;0.00;0.00;;;16.90;99.90;;;;;;5053359;28;20028;-74
2023/08/02 08:37:53;;;;;;;0.85;0.00;;;16.60;99.90;;;;;;5054711;28;20025;-74
2023/08/02 08:40:19;;;;;;;0.85;0.00;;;16.60;99.90;;;;;;5053400;28;20029;-74
2023/08/02 08:42:53;;;;;;;0.13;0.00;;;16.70;99.90;;;;;;5054511;28;20060;-74
2023/08/02 08:45:20;;;;;;;0.00;0.00;;;16.80;99.90;;;;;;5054647;28;20455;-74
2023/08/02 08:47:46;;;;;;;0.10;0.00;;;17.00;99.90;;;;;;5054036;28;20392;-73
2023/08/02 08:50:13;;;;;;;1.95;0.10;;;17.20;99.90;;;;;;5053124;28;20031;-73
2023/08/02 08:52:40;;;;;;;0.00;0.00;;;17.40;99.90;;;;;;5053171;28;20410;-74
2023/08/02 08:55:11;;;;;;;0.00;0.00;;;17.50;99.90;;;;;;5051983;28;20019;-74
2023/08/02 08:57:37;;;;;;;0.43;0.25;;;17.60;99.90;;;;;;5054277;28;20480;-74
2023/08/02 09:00:06;;;;;;;0.10;0.00;;;17.60;99.90;;;;;;5054416;28;20039;-74
2023/08/02 09:02:32;;;;;;;0.00;0.00;;;17.70;99.90;;;;;;5053143;28;20029;-74
2023/08/02 09:05:03;;;;;;;0.00;0.00;;;17.70;99.90;;;;;;5054053;28;20048;-73
2023/08/02 09:07:30;;;;;;;1.55;0.00;;;17.80;99.90;;;;;;5054813;28;20079;-73
2023/08/02 09:09:55;;;;;;;0.08;0.00;;;17.80;99.90;;;;;;5054085;28;20112;-73
2023/08/02 09:12:23;;;;;;;0.00;0.00;;;17.90;99.90;;;;;;5054246;28;20060;-74
2023/08/02 09:14:59;;;;;;;0.00;0.00;;;18.10;99.90;;;;;;5054051;28;20025;-74
2023/08/02 09:17:25;;;;;;;2.08;0.15;;;18.30;99.90;;;;;;5054790;28;20040;-74
2023/08/02 09:19:50;;;;;;;0.68;0.00;;;18.60;99.90;;;;;;5054011;28;20025;-74
2023/08/02 09:22:16;;;;;;;0.45;0.00;;;18.70;99.90;;;;;;5054287;28;20158;-74
2023/08/02 09:24:44;;;;;;;0.55;0.22;;;18.80;99.90;;;;;;5054069;28;20029;-74
2023/08/02 09:27:18;;;;;;;0.30;0.00;;;18.80;99.90;;;;;;5054150;28;20020;-74
2023/08/02 09:29:43;;;;;;;0.32;0.00;;;18.90;99.90;;;;;;5054110;28;20383;-74
2023/08/02 09:32:09;;;;;;;0.45;0.00;;;18.90;99.90;;;;;;5053611;28;20088;-74
2023/08/02 09:34:48;;;;;;;0.10;0.00;;;19.00;99.90;;;;;;5054242;28;20013;-74
2023/08/02 09:37:16;;;;;;;4.07;0.25;;;19.00;99.90;;;;;;5054061;28;20396;-74
2023/08/02 09:39:51;;;;;;;0.90;0.10;;;19.00;99.90;;;;;;5053866;28;20021;-74
2023/08/02 09:42:22;;;;;;;0.20;0.00;;;19.00;99.90;;;;;;5053738;28;20510;-74
2023/08/02 09:44:55;;;;;;;0.03;0.00;;;19.00;99.90;;;;;;5053672;28;20031;-73
2023/08/02 09:47:21;;;;;;;1.85;0.17;;;19.00;99.90;;;;;;5053516;28;20104;-74
2023/08/02 09:50:06;;;;;;;0.25;0.00;;;19.10;99.90;;;;;;5053437;28;20480;-73
2023/08/02 09:52:32;;;;;;;0.38;0.13;;;19.20;99.90;;;;;;5053300;28;20511;-74
2023/08/02 09:54:58;;;;;;;0.47;0.10;;;19.20;99.90;;;;;;5053543;28;20017;-74
2023/08/02 09:57:26;;;;;;;0.00;0.00;;;19.20;99.90;;;;;;5053338;28;20021;-73
2023/08/02 09:59:53;;;;;;;1.27;0.00;;;19.20;99.90;;;;;;5053201;28;20029;-74
2023/08/02 10:02:25;;;;;;;0.20;0.00;;;19.50;99.90;;;;;;5053958;28;20539;-74
2023/08/02 10:04:56;;;;;;;0.10;0.00;;;19.90;99.90;;;;;;5053650;28;20536;-74
2023/08/02 10:07:41;;;;;;;0.25;0.08;;;20.50;99.90;;;;;;5052856;28;20036;-73
2023/08/02 10:10:21;;;;;;;0.43;0.00;;;21.00;99.90;;;;;;5053659;28;20063;-74
2023/08/02 10:12:52;;;;;;;0.00;0.00;;;21.30;99.90;;;;;;5053415;28;20024;-73
2023/08/02 10:15:18;;;;;;;0.03;0.00;;;21.60;99.90;;;;;;5051945;28;20020;-74
2023/08/02 10:17:46;;;;;;;0.20;0.00;;;21.70;99.90;;;;;;5054076;28;20083;-74
2023/08/02 10:20:13;;;;;;;1.88;0.00;;;21.80;99.90;;;;;;5054326;28;20025;-74
2023/08/02 10:22:40;;;;;;;0.13;0.00;;;21.80;99.90;;;;;;5052405;28;20109;-74
2023/08/02 10:25:07;;;;;;;0.88;0.05;;;21.90;99.90;;;;;;5052104;28;20021;-74
2023/08/02 10:27:34;;;;;;;0.00;0.00;;;22.20;99.90;;;;;;5052149;28;20036;-74
2023/08/02 10:30:01;;;;;;;0.45;0.00;;;22.50;99.90;;;;;;5054129;28;20025;-74
2023/08/02 10:32:26;;;;;;;1.63;0.08;;;22.70;99.90;;;;;;5053870;28;20082;-74
2023/08/02 10:34:52;;;;;;;1.45;0.00;;;22.90;99.90;;;;;;5053380;28;20024;-74
2023/08/02 10:37:19;;;;;;;0.20;0.00;;;22.80;99.90;;;;;;5052030;28;20052;-74
2023/08/02 10:39:45;;;;;;;0.75;0.15;;;22.80;99.90;;;;;;5053510;28;20375;-74
2023/08/02 10:42:14;;;;;;;2.10;0.10;;;22.90;99.90;;;;;;5051846;28;20112;-73
2023/08/02 10:44:55;;;;;;;0.08;0.00;;;23.30;99.90;;;;;;5051942;28;20029;-74
2023/08/02 10:47:33;;;;;;;0.47;0.00;;;23.40;99.90;;;;;;5052999;28;20032;-74
2023/08/02 10:50:00;;;;;;;0.63;0.00;;;23.40;99.90;;;;;;5052672;28;20152;-74
2023/08/02 10:52:34;;;;;;;1.48;0.00;;;23.10;99.90;;;;;;5051681;28;20017;-74
2023/08/02 10:55:06;;;;;;;1.67;0.00;;;22.90;99.90;;;;;;5053107;28;20021;-73
2023/08/02 10:57:31;;;;;;;0.43;0.00;;;22.90;99.90;;;;;;5051422;28;20021;-74
2023/08/02 10:59:57;;;;;;;3.17;0.30;;;23.00;99.90;;;;;;5052879;28;20035;-74
2023/08/02 11:02:25;;;;;;;0.93;0.00;;;22.70;99.90;;;;;;5052850;28;20127;-74
2023/08/02 11:04:51;;;;;;;2.53;0.28;;;22.30;99.90;;;;;;5052962;28;20117;-74
2023/08/02 11:07:19;;;;;;;1.00;0.00;;;22.10;99.90;;;;;;5051766;28;20079;-73
2023/08/02 11:09:46;;;;;;;0.75;0.00;;;22.40;99.90;;;;;;5052790;28;20108;-73
2023/08/02 11:12:13;;;;;;;1.85;0.35;;;22.30;99.90;;;;;;5052827;28;20025;-74
2023/08/02 11:14:39;;;;;;;4.03;0.30;;;22.30;99.90;;;;;;5053176;28;20419;-74
2023/08/02 11:17:06;;;;;;;4.80;0.08;;;22.40;99.90;;;;;;5051249;28;20021;-74
2023/08/02 11:19:31;;;;;;;2.55;0.17;;;22.50;99.90;;;;;;5055861;28;20099;-74
2023/08/02 11:21:59;;;;;;;1.77;0.30;;;22.60;99.90;;;;;;5054995;28;20109;-74
2023/08/02 11:24:25;;;;;;;2.23;0.47;;;22.60;99.90;;;;;;5056342;28;20018;-74
2023/08/02 11:26:59;;;;;;;1.38;0.00;;;22.90;99.90;;;;;;5056084;28;20025;-73
2023/08/02 11:29:25;;;;;;;4.15;0.30;;;22.90;99.90;;;;;;5054552;28;20024;-74
2023/08/02 11:31:53;;;;;;;4.20;0.30;;;22.90;99.90;;;;;;5055966;28;20067;-73
2023/08/02 11:34:19;;;;;;;3.80;0.00;;;22.80;99.90;;;;;;5056004;28;20048;-74
2023/08/02 11:36:46;;;;;;;1.23;0.17;;;22.80;99.90;;;;;;5056220;28;20388;-74
2023/08/02 11:39:16;;;;;;;3.50;0.32;;;22.90;99.90;;;;;;5055824;28;20025;-73
2023/08/02 11:41:42;;;;;;;3.75;0.45;;;23.10;99.90;;;;;;5055801;28;20178;-74
2023/08/02 11:44:18;;;;;;;1.88;0.15;;;23.40;99.90;;;;;;5054402;28;20070;-73
2023/08/02 11:46:52;;;;;;;5.22;0.15;;;23.60;99.90;;;;;;5056212;28;20627;-74
2023/08/02 11:49:18;;;;;;;1.83;0.00;;;24.00;99.90;;;;;;5055758;28;20507;-74
2023/08/02 11:51:44;;;;;;;2.78;0.00;;;24.00;99.90;;;;;;5056261;28;20024;-73
2023/08/02 11:54:09;;;;;;;1.75;0.00;;;23.70;99.90;;;;;;5054559;28;20032;-74
2023/08/02 11:56:35;;;;;;;4.60;0.00;;;23.70;99.90;;;;;;5054390;28;20040;-73
2023/08/02 11:59:01;;;;;;;0.80;0.00;;;23.60;99.90;;;;;;5055662;28;20017;-73
2023/08/02 12:01:27;;;;;;;1.65;0.10;;;23.60;99.90;;;;;;5055390;28;20061;-73
2023/08/02 12:04:02;;;;;;;2.90;0.00;;;23.70;99.90;;;;;;5054404;28;20496;-74
2023/08/02 12:06:53;;;;;;;1.30;0.00;;;23.80;99.90;;;;;;5054314;28;20021;-74
2023/08/02 12:09:19;;;;;;;0.28;0.00;;;23.90;99.90;;;;;;5055429;28;20029;-74
2023/08/02 12:11:53;;;;;;;0.98;0.00;;;23.80;99.90;;;;;;5054343;28;20025;-74
2023/08/02 12:14:29;;;;;;;1.25;0.10;;;24.00;99.90;;;;;;5054339;28;20044;-74
2023/08/02 12:16:54;;;;;;;0.60;0.00;;;24.10;99.90;;;;;;5054351;28;20029;-73
2023/08/02 12:19:20;;;;;;;2.30;0.00;;;24.20;99.90;;;;;;5055500;28;20044;-74
2023/08/02 12:21:57;;;;;;;2.95;0.20;;;24.30;99.90;;;;;;5055878;28;20029;-73
2023/08/02 12:24:22;;;;;;;0.47;0.00;;;24.30;99.90;;;;;;5055439;28;20032;-75
2023/08/02 12:26:48;;;;;;;1.38;0.00;;;24.30;99.90;;;;;;5055171;28;20582;-74
2023/08/02 12:29:24;;;;;;;0.70;0.00;;;23.90;99.90;;;;;;5054897;28;20445;-74
2023/08/02 12:31:53;;;;;;;2.83;0.00;;;23.90;99.90;;;;;;5055023;28;20070;-73
2023/08/02 12:34:19;;;;;;;1.85;0.00;;;23.70;99.90;;;;;;5055187;28;20526;-74
2023/08/02 12:36:47;;;;;;;1.27;0.00;;;23.50;99.90;;;;;;5055018;28;20017;-74
2023/08/02 12:39:13;;;;;;;1.73;0.00;;;23.50;99.90;;;;;;5053678;28;20036;-74
2023/08/02 12:41:38;;;;;;;0.55;0.00;;;23.50;99.90;;;;;;5053505;28;20384;-74
2023/08/02 12:44:04;;;;;;;2.63;0.03;;;23.70;99.90;;;;;;5054950;28;20110;-74